Lafayette, California
Current Conditions -  °F | °C
As of 11:53 AM on Saturday 25 Oct 2014 (Local Time) from KCCR Reporting Station
Broken Clouds Broken Clouds  
Wind Chill: 67°   Ceiling: 2400
Heat Index: 67°   Visibility: 10mi
Dew Point: 56°   Wind: 13mph
Humidity: 68%   Direction: 210°SSW
Pressure: 30.05"   Gusts: 23mph
Location:  37.89°N, 122.12°W
Report Text: KCCR 251853Z 21011G20KT 10SM BKN024 19/13 A3005 RMK AO2 RAB09E18 SLP161 P0000 T01940133
Loading
Personal Weather Stations






























Interactive Weather Map
Tropical Storm Tracking
New forecast layout! Learn more

10-Day Weather Forecast

Advertisements
Track Severe Weather on mobile